Westville, FL

7:49 AM CDT on August 29, 2015 (GMT -0500)
Behind Mt Pleasant Assembly of God Church on Mt Pleasant Rd, Westville, FL | | Change Station
CLOSE
Current Station
Personal Weather Station
Location: Westville, FL
Elevation: 141 ft
Nearby Weather Stations

Elev 141 ft 30.85 °N, 85.91 °W | Updated 9 seconds ago

Overcast
Overcast
72.7 °F
Feels Like 72.7 °F
N
0.0
Wind Variable Wind from South
Gusts 0.0 mph

Today
High -- | Low -- °F
--% Chance of Precip.
Yesterday
High -- | Low -- °F
Precip. -- in
6:17 AM 7:10 PM
Full, 100% visible
Pressure 29.98 in
Visibility 10.0 miles
Clouds Clear
Dew Point 72 °F
Humidity 99%
Rainfall 0.00 in
Snow Depth Not available.
UV 1.0 out of 12
Pollen 6.90 out of 12
Air Quality Not available.
Flu Activity Not available.
METAR K1J0 291158Z AUTO 03003KT 10SM CLR 22/21 A3010 RMK AO2 SLP151 70023 T02170211 10222 20211 53011
Pressure 29.98 in
Visibility 10.0 miles
Clouds Clear
Dew Point 72 °F
Humidity 99%
Rainfall 0.00 in
Snow Depth Not available.
UV 1.0 out of 12
Pollen 6.90 out of 12
Air Quality Not available.
Flu Activity Not available.
METAR K1J0 291158Z AUTO 03003KT 10SM CLR 22/21 A3010 RMK AO2 SLP151 70023 T02170211 10222 20211 53011

10-Day Weather Forecast

×

Almanac

Astronomy

Aug. 29, 2015 Rise Set
Actual Time
Civil Twilight
Nautical Twilight
Astronomical Twilight
Moon
Length of Visible Light
Length of Day
Tomorrow will be .
, % of the Moon is Illuminated

Today's Extremes

State Highs State Lows

Community

WunderPhotos

Upload Photos

1,850,677 photos uploaded!

WunderBlogs® & News

Nearby

Air Quality

  Air Quality AQ Index Pollutant
Not available.

Snow Depth

Station Depth Elevation

Earthquake Activity

City Distance Mag. Time & Date
Minimum magnitude displayed is 2.5.

Coastal Water Temperatures

Place Temperature

Stations

Nearby Weather Stations

Station Location Temp. Windchill Dew Point Humidity Wind Precip. Elev Updated Type